Time;durP1;ratioP1;P1;durP2;ratioP2;P2;SDS_P1;SDS_P2;PMS_P1;PMS_P2;Temp;Humidity;BMP_temperature;BMP_pressure;BME280_temperature;BME280_humidity;BME280_pressure;Samples;Min_cycle;Max_cycle;Signal;HPM_P1;HPM_P2
2021/03/29 00:01:43;;;;;;;13.60;7.75;;;8.80;1.00;;;;;;5082019;28;20051;-75
2021/03/29 00:04:10;;;;;;;12.57;6.75;;;8.70;1.00;;;;;;5085733;28;20054;-74
2021/03/29 00:06:38;;;;;;;13.32;6.63;;;8.80;1.00;;;;;;5085434;28;20494;-75
2021/03/29 00:09:06;;;;;;;10.60;5.68;;;8.80;1.00;;;;;;5082395;28;20141;-75
2021/03/29 00:11:36;;;;;;;10.65;5.90;;;8.90;1.00;;;;;;5080963;28;20050;-74
2021/03/29 00:14:03;;;;;;;11.20;5.30;;;8.90;1.00;;;;;;5084665;28;20040;-73
2021/03/29 00:16:31;;;;;;;11.88;5.85;;;8.80;1.00;;;;;;5089570;28;20509;-74
2021/03/29 00:18:59;;;;;;;14.85;5.63;;;8.80;1.00;;;;;;5084946;28;20052;-76
2021/03/29 00:21:26;;;;;;;11.05;5.82;;;8.80;1.00;;;;;;5086904;28;20067;-74
2021/03/29 00:23:54;;;;;;;12.10;5.85;;;8.80;1.00;;;;;;5088978;28;20058;-74
2021/03/29 00:26:21;;;;;;;11.75;5.65;;;8.80;1.00;;;;;;5089893;28;20074;-75
2021/03/29 00:28:48;;;;;;;9.05;5.80;;;8.80;1.00;;;;;;5088872;28;20052;-75
2021/03/29 00:31:16;;;;;;;13.38;6.00;;;8.80;1.00;;;;;;5084976;28;20045;-74
2021/03/29 00:33:44;;;;;;;15.57;7.28;;;8.80;1.00;;;;;;5087790;28;20040;-75
2021/03/29 00:36:12;;;;;;;11.55;5.72;;;8.80;1.00;;;;;;5088704;28;20054;-75
2021/03/29 00:38:41;;;;;;;12.50;6.03;;;8.80;1.00;;;;;;5089214;28;20050;-75
2021/03/29 00:41:11;;;;;;;13.13;5.68;;;8.80;1.00;;;;;;5081608;28;20048;-75
2021/03/29 00:43:41;;;;;;;10.52;5.70;;;8.80;1.00;;;;;;5084938;28;20048;-74
2021/03/29 00:46:11;;;;;;;11.30;5.70;;;8.70;1.00;;;;;;5087690;28;20051;-74
2021/03/29 00:48:38;;;;;;;10.68;5.68;;;8.70;1.00;;;;;;5084659;28;20054;-75
2021/03/29 00:51:10;;;;;;;12.32;5.53;;;8.70;1.00;;;;;;5080462;28;20052;-75
2021/03/29 00:53:38;;;;;;;11.35;5.25;;;8.60;1.00;;;;;;5086008;28;20135;-75
2021/03/29 00:56:06;;;;;;;13.23;6.15;;;8.60;1.00;;;;;;5087472;28;20044;-75
2021/03/29 00:58:34;;;;;;;10.00;5.30;;;8.50;1.00;;;;;;5092102;28;20098;-75
2021/03/29 01:01:05;;;;;;;11.10;5.60;;;8.40;1.00;;;;;;5086430;28;20044;-75
2021/03/29 01:03:35;;;;;;;13.30;5.82;;;8.40;1.00;;;;;;5089090;28;20055;-74
2021/03/29 01:06:05;;;;;;;11.25;5.65;;;8.40;1.00;;;;;;5089141;28;20048;-74
2021/03/29 01:08:34;;;;;;;14.13;6.40;;;8.30;1.00;;;;;;5089747;28;20422;-74
2021/03/29 01:11:04;;;;;;;11.65;5.63;;;8.30;1.00;;;;;;5086443;28;20050;-74
2021/03/29 01:13:33;;;;;;;11.90;5.18;;;8.30;1.00;;;;;;5087933;28;20052;-74
2021/03/29 01:16:04;;;;;;;10.65;5.68;;;8.20;1.00;;;;;;5088940;28;20051;-74
2021/03/29 01:18:32;;;;;;;12.48;5.68;;;8.20;1.00;;;;;;5090637;28;20050;-73
2021/03/29 01:21:11;;;;;;;12.30;5.30;;;8.20;1.00;;;;;;5082148;28;20054;-74
2021/03/29 01:23:40;;;;;;;12.95;5.95;;;8.10;1.00;;;;;;5086857;28;20056;-74
2021/03/29 01:26:13;;;;;;;9.23;5.18;;;8.10;1.00;;;;;;5087781;28;20126;-74
2021/03/29 01:28:41;;;;;;;9.52;5.45;;;8.00;1.00;;;;;;5089888;28;20050;-74
2021/03/29 01:31:09;;;;;;;11.25;5.15;;;8.00;1.00;;;;;;5087565;28;20470;-75
2021/03/29 01:33:37;;;;;;;13.57;5.07;;;8.00;1.00;;;;;;5091829;28;20048;-75
2021/03/29 01:36:05;;;;;;;9.98;5.30;;;7.90;1.00;;;;;;5092613;28;20139;-75
2021/03/29 01:38:33;;;;;;;10.40;5.25;;;7.80;1.00;;;;;;5090796;28;20051;-75
2021/03/29 01:41:02;;;;;;;8.73;5.07;;;7.70;1.00;;;;;;5087524;28;20044;-75
2021/03/29 01:43:29;;;;;;;13.20;5.65;;;7.70;1.00;;;;;;5087175;28;20056;-76
2021/03/29 01:45:59;;;;;;;9.18;5.35;;;7.70;1.00;;;;;;5086865;28;20044;-74
2021/03/29 01:48:26;;;;;;;13.73;5.47;;;7.60;1.00;;;;;;5090849;28;20052;-73
2021/03/29 01:50:54;;;;;;;12.15;5.57;;;7.60;1.00;;;;;;5085140;28;20128;-74
2021/03/29 01:53:24;;;;;;;9.68;4.95;;;7.60;1.00;;;;;;5085731;28;20044;-74
2021/03/29 01:55:51;;;;;;;10.30;5.03;;;7.60;1.00;;;;;;5087744;28;20501;-74
2021/03/29 01:58:19;;;;;;;12.68;5.45;;;7.60;1.00;;;;;;5090024;28;20139;-75
2021/03/29 02:00:49;;;;;;;12.95;5.18;;;7.50;1.00;;;;;;5089945;28;20532;-75
2021/03/29 02:03:19;;;;;;;10.88;4.65;;;7.60;1.00;;;;;;5088983;28;20581;-75
2021/03/29 02:05:47;;;;;;;9.23;5.22;;;7.60;1.00;;;;;;5088955;28;20044;-73
2021/03/29 02:08:15;;;;;;;9.27;4.93;;;7.50;1.00;;;;;;5092363;28;20048;-74
2021/03/29 02:10:43;;;;;;;10.55;5.25;;;7.50;1.00;;;;;;5088705;28;20130;-74
2021/03/29 02:13:11;;;;;;;10.25;5.35;;;7.50;1.00;;;;;;5089734;28;20055;-74
2021/03/29 02:15:40;;;;;;;9.57;5.45;;;7.50;1.00;;;;;;5091552;28;20047;-75
2021/03/29 02:18:12;;;;;;;13.98;5.57;;;7.60;1.00;;;;;;5091071;28;20052;-74
2021/03/29 02:20:41;;;;;;;10.50;5.53;;;7.60;1.00;;;;;;5087891;28;20040;-75
2021/03/29 02:23:09;;;;;;;12.43;5.30;;;7.60;1.00;;;;;;5088133;28;20044;-74
2021/03/29 02:25:38;;;;;;;10.45;4.88;;;7.50;1.00;;;;;;5092116;28;20056;-74
2021/03/29 02:28:06;;;;;;;8.65;4.82;;;7.60;1.00;;;;;;5090548;28;20074;-74
2021/03/29 02:30:36;;;;;;;18.77;6.00;;;7.50;1.00;;;;;;5084369;28;20512;-75
2021/03/29 02:33:05;;;;;;;12.57;5.60;;;7.50;1.00;;;;;;5085269;28;20675;-73
2021/03/29 02:35:34;;;;;;;15.55;5.75;;;7.40;1.00;;;;;;5089443;28;20048;-74
2021/03/29 02:38:04;;;;;;;12.18;5.65;;;7.40;1.00;;;;;;5087748;28;20050;-74
2021/03/29 02:40:31;;;;;;;10.40;5.35;;;7.40;1.00;;;;;;5083038;28;20074;-73
2021/03/29 02:43:01;;;;;;;12.35;4.60;;;7.50;1.00;;;;;;5087217;28;20054;-73
2021/03/29 02:45:31;;;;;;;8.60;4.80;;;7.50;1.00;;;;;;5086120;28;20048;-73
2021/03/29 02:48:03;;;;;;;14.68;5.70;;;7.40;1.00;;;;;;5088931;28;20512;-74
2021/03/29 02:50:33;;;;;;;8.55;4.63;;;7.40;1.00;;;;;;5083665;28;20052;-74
2021/03/29 02:53:05;;;;;;;11.93;5.57;;;7.40;1.00;;;;;;5084231;28;20054;-74
2021/03/29 02:55:33;;;;;;;11.50;5.15;;;7.40;1.00;;;;;;5088126;28;20062;-73
2021/03/29 02:58:03;;;;;;;10.95;4.88;;;7.40;1.00;;;;;;5087514;28;20529;-73
2021/03/29 03:00:32;;;;;;;12.05;5.53;;;7.30;1.00;;;;;;5084043;28;20052;-73
2021/03/29 03:03:01;;;;;;;9.95;4.97;;;7.30;1.00;;;;;;5083953;28;20641;-74
2021/03/29 03:05:30;;;;;;;10.48;4.93;;;7.30;1.00;;;;;;5088599;28;20040;-73
2021/03/29 03:07:57;;;;;;;12.07;4.65;;;7.20;1.00;;;;;;5086367;28;20050;-73
2021/03/29 03:10:28;;;;;;;9.85;4.82;;;7.00;1.00;;;;;;5084942;28;20420;-73
2021/03/29 03:12:57;;;;;;;10.90;5.38;;;6.90;1.00;;;;;;5083897;28;20052;-74
2021/03/29 03:15:26;;;;;;;12.45;6.00;;;6.70;1.00;;;;;;5089068;28;20054;-73
2021/03/29 03:17:55;;;;;;;11.18;5.00;;;6.70;1.00;;;;;;5085703;28;20070;-74
2021/03/29 03:20:22;;;;;;;10.35;4.60;;;6.50;1.00;;;;;;5084775;28;20066;-73
2021/03/29 03:22:50;;;;;;;10.00;5.47;;;6.50;1.00;;;;;;5084115;28;20048;-74
2021/03/29 03:25:20;;;;;;;8.40;5.00;;;6.50;1.00;;;;;;5087052;28;20040;-73
2021/03/29 03:27:48;;;;;;;11.90;5.30;;;6.60;1.00;;;;;;5084455;28;20048;-74
2021/03/29 03:30:18;;;;;;;12.65;5.10;;;6.70;1.00;;;;;;5085432;28;20124;-74
2021/03/29 03:32:45;;;;;;;11.00;5.70;;;6.80;1.00;;;;;;5082470;28;20044;-73
2021/03/29 03:35:15;;;;;;;13.85;6.53;;;6.80;1.00;;;;;;5088101;28;20044;-73
2021/03/29 03:37:45;;;;;;;9.55;5.40;;;6.70;1.00;;;;;;5086451;28;20491;-74
2021/03/29 03:40:13;;;;;;;14.05;5.57;;;6.80;1.00;;;;;;5082360;28;20050;-74
2021/03/29 03:42:42;;;;;;;13.30;5.93;;;6.90;1.00;;;;;;5081502;28;20060;-74
2021/03/29 03:45:11;;;;;;;12.80;5.50;;;6.80;1.00;;;;;;5086990;28;20062;-73
2021/03/29 03:47:39;;;;;;;10.57;5.75;;;6.80;1.00;;;;;;5086276;28;20131;-73
2021/03/29 03:50:08;;;;;;;17.10;6.00;;;6.80;1.00;;;;;;5083486;28;20137;-73
2021/03/29 03:52:36;;;;;;;10.02;5.65;;;6.80;1.00;;;;;;5083042;28;20059;-73
2021/03/29 03:55:05;;;;;;;8.90;5.57;;;6.70;1.00;;;;;;5086414;28;20518;-73
2021/03/29 03:57:34;;;;;;;15.00;5.75;;;6.80;1.00;;;;;;5086016;28;20063;-73
2021/03/29 04:00:01;;;;;;;11.52;5.30;;;6.80;1.00;;;;;;5083223;28;20044;-73
2021/03/29 04:02:30;;;;;;;14.23;6.00;;;6.80;1.00;;;;;;5083595;28;20044;-73
2021/03/29 04:04:57;;;;;;;14.13;5.53;;;6.90;1.00;;;;;;5085305;28;20040;-74
2021/03/29 04:07:24;;;;;;;10.18;4.88;;;6.90;1.00;;;;;;5087360;28;20052;-72
2021/03/29 04:09:54;;;;;;;10.90;5.40;;;6.90;1.00;;;;;;5083657;28;20201;-74
2021/03/29 04:12:21;;;;;;;12.23;5.22;;;7.00;1.00;;;;;;5083832;28;20058;-73
2021/03/29 04:14:48;;;;;;;14.25;5.55;;;7.10;1.00;;;;;;5080149;28;20060;-75
2021/03/29 04:17:15;;;;;;;13.35;5.20;;;7.10;1.00;;;;;;5085271;28;20044;-74
2021/03/29 04:19:42;;;;;;;14.80;5.68;;;7.10;1.00;;;;;;5082229;28;20048;-73
2021/03/29 04:22:09;;;;;;;10.18;5.13;;;7.10;1.00;;;;;;5084615;28;20052;-73
2021/03/29 04:24:36;;;;;;;11.55;5.05;;;7.20;1.00;;;;;;5082065;28;20050;-73
2021/03/29 04:27:04;;;;;;;9.02;5.32;;;7.20;1.00;;;;;;5087348;28;20055;-74
2021/03/29 04:29:31;;;;;;;8.88;5.43;;;7.30;1.00;;;;;;5091532;28;20113;-74
2021/03/29 04:31:58;;;;;;;12.60;5.50;;;7.30;1.00;;;;;;5087198;28;20051;-74
2021/03/29 04:34:25;;;;;;;12.18;6.40;;;7.30;1.00;;;;;;5090463;28;20136;-74
2021/03/29 04:36:52;;;;;;;9.40;5.10;;;7.20;1.00;;;;;;5091343;28;20054;-74
2021/03/29 04:39:20;;;;;;;11.40;5.30;;;7.20;1.00;;;;;;5092483;28;20056;-73
2021/03/29 04:41:47;;;;;;;12.52;5.35;;;7.20;1.00;;;;;;5086647;28;20044;-74
2021/03/29 04:44:14;;;;;;;10.23;5.13;;;7.20;1.00;;;;;;5089878;28;20093;-74
2021/03/29 04:46:40;;;;;;;10.23;5.07;;;7.20;1.00;;;;;;5090311;28;20040;-74
2021/03/29 04:49:07;;;;;;;10.93;5.30;;;7.20;1.00;;;;;;5091903;28;20426;-74
2021/03/29 04:51:34;;;;;;;13.73;5.30;;;7.20;1.00;;;;;;5085209;28;20058;-74
2021/03/29 04:54:02;;;;;;;13.45;5.18;;;7.30;1.00;;;;;;5089437;28;20385;-73
2021/03/29 04:56:29;;;;;;;17.30;6.40;;;7.20;1.00;;;;;;5089941;28;20054;-73
2021/03/29 04:58:55;;;;;;;12.43;5.55;;;7.20;1.00;;;;;;5091769;28;20052;-74
2021/03/29 05:01:22;;;;;;;16.50;5.78;;;7.20;1.00;;;;;;5086471;28;20083;-74
2021/03/29 05:03:49;;;;;;;13.23;5.05;;;7.20;1.00;;;;;;5087510;28;20131;-72
2021/03/29 05:06:16;;;;;;;10.00;5.50;;;7.20;1.00;;;;;;5088331;28;20058;-74
2021/03/29 05:08:43;;;;;;;11.90;5.28;;;7.30;1.00;;;;;;5090167;28;20897;-72
2021/03/29 05:11:12;;;;;;;10.63;5.68;;;7.30;1.00;;;;;;5085146;28;20450;-74
2021/03/29 05:13:38;;;;;;;10.93;4.88;;;7.40;1.00;;;;;;5086689;28;20048;-73
2021/03/29 05:16:06;;;;;;;13.90;4.68;;;7.40;1.00;;;;;;5088977;28;20149;-74
2021/03/29 05:18:33;;;;;;;12.50;5.15;;;7.40;1.00;;;;;;5090046;28;20151;-73
2021/03/29 05:21:00;;;;;;;13.48;5.78;;;7.40;1.00;;;;;;5085779;28;20051;-74
2021/03/29 05:23:27;;;;;;;14.75;5.40;;;7.30;1.00;;;;;;5084682;28;20135;-74
2021/03/29 05:25:53;;;;;;;15.70;5.80;;;7.30;1.00;;;;;;5090433;28;20122;-74
2021/03/29 05:28:21;;;;;;;10.65;5.13;;;7.40;1.00;;;;;;5087071;28;21220;-74
2021/03/29 05:30:48;;;;;;;14.55;5.15;;;7.40;1.00;;;;;;5084485;28;20043;-75
2021/03/29 05:33:15;;;;;;;13.05;5.35;;;7.40;1.00;;;;;;5087519;28;20561;-75
2021/03/29 05:35:42;;;;;;;8.50;4.97;;;7.50;1.00;;;;;;5090486;28;20127;-75
2021/03/29 05:38:10;;;;;;;12.30;5.32;;;7.50;1.00;;;;;;5089595;28;20405;-73
2021/03/29 05:40:37;;;;;;;10.98;5.82;;;7.50;1.00;;;;;;5086720;28;20048;-73
2021/03/29 05:43:05;;;;;;;16.50;5.97;;;7.40;1.00;;;;;;5087802;28;20135;-75
2021/03/29 05:45:32;;;;;;;16.08;5.80;;;7.50;1.00;;;;;;5089448;28;20151;-74
2021/03/29 05:47:59;;;;;;;12.52;6.05;;;7.50;1.00;;;;;;5087929;28;20078;-73
2021/03/29 05:50:26;;;;;;;18.75;6.20;;;7.60;1.00;;;;;;5085239;28;20048;-74
2021/03/29 05:52:54;;;;;;;13.63;5.72;;;7.60;1.00;;;;;;5085256;28;20135;-74
2021/03/29 05:55:23;;;;;;;11.63;4.97;;;7.60;1.00;;;;;;5086908;28;20109;-74
2021/03/29 05:58:07;;;;;;;10.90;5.03;;;7.60;1.00;;;;;;5089463;28;20456;-74
2021/03/29 06:00:40;;;;;;;10.30;4.93;;;7.60;1.00;;;;;;5081700;28;20100;-74
2021/03/29 06:03:35;;;;;;;7.05;4.15;;;7.70;1.00;;;;;;5086685;28;20043;-74
2021/03/29 06:06:16;;;;;;;11.10;5.10;;;7.70;1.00;;;;;;5064209;28;20046;-74
2021/03/29 06:08:45;;;;;;;10.82;5.53;;;7.90;1.00;;;;;;5088022;28;20395;-73
2021/03/29 06:11:21;;;;;;;10.20;4.97;;;7.90;1.00;;;;;;5085230;28;20051;-74
2021/03/29 06:14:06;;;;;;;12.98;5.70;;;8.10;1.00;;;;;;5086631;28;20051;-75
2021/03/29 06:16:51;;;;;;;14.43;4.95;;;8.20;1.00;;;;;;5087765;28;20143;-74
2021/03/29 06:19:37;;;;;;;11.77;5.43;;;8.40;1.00;;;;;;5089996;28;20047;-73
2021/03/29 06:22:10;;;;;;;13.30;5.13;;;8.50;1.00;;;;;;5085481;28;20050;-74
2021/03/29 06:25:03;;;;;;;13.00;5.30;;;8.40;1.00;;;;;;5085996;28;20040;-74
2021/03/29 06:27:31;;;;;;;9.10;4.75;;;8.50;1.00;;;;;;5071026;28;20087;-74
2021/03/29 06:30:21;;;;;;;10.90;4.97;;;8.70;1.00;;;;;;5086249;28;20152;-74
2021/03/29 06:33:05;;;;;;;17.00;4.72;;;8.80;1.00;;;;;;5081820;28;20336;-75
2021/03/29 06:35:35;;;;;;;12.32;4.82;;;9.00;1.00;;;;;;5087686;28;20056;-74
2021/03/29 06:38:08;;;;;;;11.07;4.63;;;9.00;1.00;;;;;;5087028;28;20067;-75
2021/03/29 06:40:36;;;;;;;9.75;4.72;;;9.20;1.00;;;;;;5084757;28;20040;-73
2021/03/29 06:43:20;;;;;;;12.10;4.95;;;9.20;1.00;;;;;;5086094;28;20097;-74
2021/03/29 06:45:47;;;;;;;10.35;4.72;;;9.20;1.00;;;;;;5087967;28;20043;-74
2021/03/29 06:48:20;;;;;;;10.80;5.38;;;9.20;1.00;;;;;;5085459;28;20139;-74
2021/03/29 06:51:10;;;;;;;11.90;5.28;;;9.30;1.00;;;;;;5083888;28;20083;-75
2021/03/29 06:53:42;;;;;;;12.15;5.63;;;9.30;1.00;;;;;;5084290;28;20391;-74
2021/03/29 06:56:32;;;;;;;17.55;5.93;;;9.70;1.00;;;;;;5087435;28;20048;-74
2021/03/29 06:59:14;;;;;;;11.07;6.03;;;9.80;1.00;;;;;;5085822;28;20067;-74
2021/03/29 07:01:50;;;;;;;9.73;5.85;;;10.10;1.00;;;;;;5083831;28;20421;-74
2021/03/29 07:04:20;;;;;;;9.65;5.22;;;9.90;1.00;;;;;;5087517;28;20051;-74
2021/03/29 07:06:48;;;;;;;10.77;5.35;;;10.10;1.00;;;;;;5088732;28;20569;-74
2021/03/29 07:09:15;;;;;;;11.48;5.10;;;10.30;1.00;;;;;;5088205;28;20044;-74
2021/03/29 07:11:44;;;;;;;8.68;4.97;;;10.40;1.00;;;;;;5085249;28;20131;-74
2021/03/29 07:14:12;;;;;;;11.25;4.82;;;10.40;1.00;;;;;;5085952;28;20044;-75
2021/03/29 07:16:41;;;;;;;12.45;5.70;;;10.50;1.00;;;;;;5087445;28;20044;-74
2021/03/29 07:19:09;;;;;;;18.00;5.35;;;10.90;1.00;;;;;;5088205;28;20139;-74
2021/03/29 07:21:37;;;;;;;14.23;5.75;;;11.00;1.00;;;;;;5080839;28;20052;-74
2021/03/29 07:24:07;;;;;;;16.85;6.28;;;11.00;1.00;;;;;;5086964;28;20064;-73
2021/03/29 07:26:37;;;;;;;11.35;5.45;;;10.90;1.00;;;;;;5087656;28;20044;-74
2021/03/29 07:29:19;;;;;;;10.30;5.07;;;11.00;1.00;;;;;;5088712;28;20070;-74
2021/03/29 07:31:48;;;;;;;12.90;4.93;;;11.20;1.00;;;;;;5083472;28;20048;-76
2021/03/29 07:34:15;;;;;;;14.38;5.53;;;11.30;1.00;;;;;;5085926;28;20181;-73
2021/03/29 07:36:46;;;;;;;14.90;5.43;;;11.40;1.00;;;;;;5086928;28;20051;-74
2021/03/29 07:39:19;;;;;;;11.88;5.88;;;11.10;1.00;;;;;;5084296;28;20445;-74
2021/03/29 07:41:46;;;;;;;13.45;5.30;;;11.30;1.00;;;;;;5081444;28;20044;-74
2021/03/29 07:44:16;;;;;;;14.18;5.57;;;11.30;1.00;;;;;;5087165;28;20131;-74
2021/03/29 07:46:48;;;;;;;11.65;5.40;;;11.20;1.00;;;;;;5083182;28;20051;-75
2021/03/29 07:49:41;;;;;;;10.50;4.82;;;11.40;1.00;;;;;;5087072;28;20113;-74
2021/03/29 07:52:28;;;;;;;15.48;4.90;;;11.40;1.00;;;;;;5084887;28;20044;-74
2021/03/29 07:54:57;;;;;;;12.00;4.90;;;11.50;1.00;;;;;;5085732;28;20044;-73
2021/03/29 07:57:59;;;;;;;9.70;4.63;;;11.70;1.00;;;;;;5088990;28;20058;-73
2021/03/29 08:00:28;;;;;;;10.30;4.70;;;11.90;1.00;;;;;;5084727;28;20056;-73
2021/03/29 08:02:57;;;;;;;13.05;4.78;;;12.00;1.00;;;;;;5087459;28;20059;-74
2021/03/29 08:05:38;;;;;;;12.73;4.95;;;12.00;1.00;;;;;;5090042;28;20413;-75
2021/03/29 08:08:39;;;;;;;13.68;4.75;;;12.30;1.00;;;;;;5091420;28;20043;-75
2021/03/29 08:11:09;;;;;;;9.80;4.97;;;12.50;1.00;;;;;;5086720;28;20039;-73
2021/03/29 08:13:38;;;;;;;12.98;4.55;;;12.40;1.00;;;;;;5086969;28;20044;-73
2021/03/29 08:16:06;;;;;;;11.35;4.57;;;12.60;1.00;;;;;;5093274;28;20040;-75
2021/03/29 08:19:08;;;;;;;11.90;4.60;;;12.80;1.00;;;;;;5091217;28;20044;-73
2021/03/29 08:21:50;;;;;;;12.60;4.22;;;13.00;1.00;;;;;;5084553;28;20052;-73
2021/03/29 08:24:24;;;;;;;9.90;4.05;;;13.10;1.00;;;;;;5089619;28;20496;-74
2021/03/29 08:26:52;;;;;;;9.23;3.58;;;13.30;1.00;;;;;;5088277;28;20130;-73
2021/03/29 08:29:30;;;;;;;9.65;3.92;;;13.40;1.00;;;;;;5088831;28;20051;-74
2021/03/29 08:32:13;;;;;;;8.65;3.90;;;13.60;1.00;;;;;;5085176;28;20051;-74
2021/03/29 08:34:59;;;;;;;11.40;4.35;;;13.90;1.00;;;;;;5086644;28;20130;-75
2021/03/29 08:37:30;;;;;;;12.05;4.82;;;14.50;1.00;;;;;;5092536;28;20139;-75
2021/03/29 08:40:00;;;;;;;10.43;4.28;;;14.80;1.00;;;;;;5089094;28;20440;-74
2021/03/29 08:42:30;;;;;;;12.50;4.28;;;14.90;1.00;;;;;;5088419;28;20059;-74
2021/03/29 08:44:57;;;;;;;9.43;3.80;;;14.70;1.00;;;;;;5091243;28;20133;-74
2021/03/29 08:47:26;;;;;;;16.00;3.92;;;14.70;1.00;;;;;;5089261;28;20052;-73
2021/03/29 08:49:55;;;;;;;9.35;3.30;;;14.50;1.00;;;;;;5089335;28;20130;-74
2021/03/29 08:52:23;;;;;;;9.07;3.50;;;14.60;1.00;;;;;;5090501;28;20070;-75
2021/03/29 08:54:53;;;;;;;8.57;3.40;;;14.60;1.00;;;;;;5091435;28;20036;-75
2021/03/29 08:57:24;;;;;;;8.45;3.38;;;14.50;1.00;;;;;;5092646;28;20117;-76
2021/03/29 08:59:52;;;;;;;11.60;3.83;;;14.60;1.00;;;;;;5087835;28;20051;-76
2021/03/29 09:02:19;;;;;;;9.85;3.25;;;14.70;1.00;;;;;;5087743;28;20052;-75
2021/03/29 09:04:51;;;;;;;10.43;3.30;;;15.00;1.00;;;;;;5089535;28;20047;-75
2021/03/29 09:07:18;;;;;;;9.10;3.33;;;15.00;1.00;;;;;;5089793;28;20290;-74
2021/03/29 09:09:45;;;;;;;9.35;3.60;;;15.30;1.00;;;;;;5091143;28;20093;-74
2021/03/29 09:12:24;;;;;;;7.47;3.47;;;15.00;1.00;;;;;;5089266;28;20044;-75
2021/03/29 09:14:51;;;;;;;6.45;3.17;;;14.90;1.00;;;;;;5091044;28;20055;-75
2021/03/29 09:17:23;;;;;;;8.70;3.33;;;14.70;1.00;;;;;;5089042;28;20054;-75
2021/03/29 09:19:50;;;;;;;9.93;3.92;;;14.90;1.00;;;;;;5086433;28;20047;-75
2021/03/29 09:22:27;;;;;;;9.68;4.00;;;15.10;1.00;;;;;;5090922;28;20129;-75
2021/03/29 09:24:54;;;;;;;12.75;3.95;;;15.30;1.00;;;;;;5088238;28;20044;-75
2021/03/29 09:27:33;;;;;;;12.48;3.42;;;15.40;1.00;;;;;;5089307;28;20058;-75
2021/03/29 09:30:02;;;;;;;11.32;3.45;;;15.60;1.00;;;;;;5089434;28;20052;-76
2021/03/29 09:32:32;;;;;;;8.15;3.15;;;15.70;1.00;;;;;;5088866;28;20075;-76
2021/03/29 09:34:59;;;;;;;9.20;3.40;;;15.80;1.00;;;;;;5089798;28;20054;-75
2021/03/29 09:37:28;;;;;;;11.15;3.10;;;15.80;1.00;;;;;;5087419;28;20101;-76
2021/03/29 09:40:00;;;;;;;7.53;2.67;;;16.10;1.00;;;;;;5086873;28;20062;-76
2021/03/29 09:42:41;;;;;;;6.57;2.92;;;16.30;1.00;;;;;;5089963;28;20056;-76
2021/03/29 09:45:12;;;;;;;6.82;3.15;;;16.40;1.00;;;;;;5089333;28;20044;-76
2021/03/29 09:47:39;;;;;;;5.60;2.90;;;15.90;1.00;;;;;;5085795;28;20078;-76
2021/03/29 09:50:09;;;;;;;4.53;1.70;;;16.30;1.00;;;;;;5086499;28;20048;-75
2021/03/29 09:52:39;;;;;;;8.73;2.22;;;16.20;1.00;;;;;;5086672;28;20047;-75
2021/03/29 09:55:10;;;;;;;9.35;2.63;;;16.10;1.00;;;;;;5091281;28;20060;-75
2021/03/29 09:57:38;;;;;;;5.88;2.03;;;16.00;1.00;;;;;;5089275;28;20044;-74
2021/03/29 10:00:15;;;;;;;9.35;2.13;;;16.60;1.00;;;;;;5085534;28;20058;-75
2021/03/29 10:02:42;;;;;;;5.82;2.08;;;16.60;1.00;;;;;;5084819;28;20127;-74
2021/03/29 10:05:11;;;;;;;8.90;2.25;;;16.70;1.00;;;;;;5088040;28;20065;-74
2021/03/29 10:07:49;;;;;;;4.78;1.80;;;16.80;1.00;;;;;;5081722;28;20075;-74
2021/03/29 10:10:24;;;;;;;7.50;1.95;;;16.90;1.00;;;;;;5079328;28;20481;-75
2021/03/29 10:12:51;;;;;;;6.25;1.92;;;16.90;1.00;;;;;;5082595;28;20146;-74
2021/03/29 10:15:19;;;;;;;8.77;2.30;;;17.00;1.00;;;;;;5089533;28;20082;-74
2021/03/29 10:17:45;;;;;;;7.82;2.10;;;17.10;1.00;;;;;;5086875;28;20517;-76
2021/03/29 10:20:15;;;;;;;7.00;1.60;;;17.20;1.00;;;;;;5084503;28;20040;-74
2021/03/29 10:22:42;;;;;;;7.70;1.70;;;17.20;1.00;;;;;;5084601;28;20056;-74
2021/03/29 10:25:14;;;;;;;3.17;1.50;;;17.20;1.00;;;;;;5086728;28;20051;-74
2021/03/29 10:27:45;;;;;;;6.30;2.53;;;17.20;1.00;;;;;;5085956;28;20123;-74
2021/03/29 10:30:24;;;;;;;5.10;1.73;;;17.20;1.00;;;;;;5084885;28;20094;-74
2021/03/29 10:32:52;;;;;;;4.55;1.90;;;17.50;1.00;;;;;;5083539;28;20043;-74
2021/03/29 10:35:21;;;;;;;5.53;1.83;;;17.50;1.00;;;;;;5086802;28;20494;-75
2021/03/29 10:37:48;;;;;;;7.35;2.42;;;17.60;1.00;;;;;;5085649;28;20066;-74
2021/03/29 10:40:16;;;;;;;3.60;1.48;;;17.70;1.00;;;;;;5083857;28;20131;-73
2021/03/29 10:42:43;;;;;;;5.43;1.75;;;17.50;1.00;;;;;;5082987;28;20044;-73
2021/03/29 10:45:12;;;;;;;5.47;1.80;;;17.70;1.00;;;;;;5087649;28;20048;-75
2021/03/29 10:47:41;;;;;;;5.82;1.90;;;17.80;1.00;;;;;;5084823;28;20052;-75
2021/03/29 10:50:11;;;;;;;9.43;1.75;;;17.60;1.00;;;;;;5083267;28;20129;-75
2021/03/29 10:52:39;;;;;;;7.60;1.60;;;17.70;1.00;;;;;;5084194;28;20058;-74
2021/03/29 10:55:07;;;;;;;4.95;1.52;;;17.60;1.00;;;;;;5087719;28;20043;-74
2021/03/29 10:57:35;;;;;;;4.15;1.55;;;17.70;1.00;;;;;;5087760;28;20044;-74
2021/03/29 11:00:03;;;;;;;6.68;2.15;;;17.80;1.00;;;;;;5082859;28;20075;-74
2021/03/29 11:02:31;;;;;;;4.80;2.00;;;17.90;1.00;;;;;;5083121;28;20087;-74
2021/03/29 11:04:59;;;;;;;5.20;1.65;;;17.90;1.00;;;;;;5086034;28;20067;-74
2021/03/29 11:07:27;;;;;;;5.05;1.75;;;18.00;1.00;;;;;;5087211;28;20134;-73
2021/03/29 11:09:54;;;;;;;4.25;1.30;;;18.20;1.00;;;;;;5080299;28;20540;-73
2021/03/29 11:12:21;;;;;;;3.75;1.50;;;18.10;1.00;;;;;;5084777;28;20073;-73
2021/03/29 11:14:48;;;;;;;5.80;1.38;;;18.00;1.00;;;;;;5081598;28;20044;-74
2021/03/29 11:17:15;;;;;;;3.42;1.65;;;17.50;1.00;;;;;;5083196;28;20052;-73
2021/03/29 11:19:42;;;;;;;5.05;1.73;;;17.80;1.00;;;;;;5083738;28;20055;-74
2021/03/29 11:22:09;;;;;;;4.65;1.77;;;17.80;1.00;;;;;;5082536;28;20528;-74
2021/03/29 11:24:37;;;;;;;3.00;1.40;;;17.90;1.00;;;;;;5084334;28;20040;-72
2021/03/29 11:27:04;;;;;;;6.80;1.40;;;17.70;1.00;;;;;;5086090;28;20462;-72
2021/03/29 11:29:31;;;;;;;7.80;1.90;;;17.80;1.00;;;;;;5082542;28;20425;-73
2021/03/29 11:31:58;;;;;;;5.82;1.90;;;17.70;1.00;;;;;;5079609;28;20449;-74
2021/03/29 11:34:25;;;;;;;7.88;2.15;;;17.90;1.00;;;;;;5082791;28;20062;-72
2021/03/29 11:36:52;;;;;;;6.55;1.90;;;17.60;1.00;;;;;;5085431;28;20626;-72
2021/03/29 11:39:20;;;;;;;11.68;1.67;;;18.10;1.00;;;;;;5084116;28;20056;-74
2021/03/29 11:41:47;;;;;;;9.82;5.05;;;18.50;1.00;;;;;;5081543;28;20056;-73
2021/03/29 11:44:13;;;;;;;5.97;1.73;;;18.50;1.00;;;;;;5083937;28;20387;-73
2021/03/29 11:46:40;;;;;;;4.50;1.80;;;18.50;1.00;;;;;;5083810;28;20131;-73
2021/03/29 11:49:07;;;;;;;5.60;1.65;;;18.60;1.00;;;;;;5087059;28;20413;-74
2021/03/29 11:51:35;;;;;;;6.53;1.70;;;18.40;1.00;;;;;;5079545;28;20524;-74
2021/03/29 11:54:02;;;;;;;7.68;1.92;;;18.40;1.00;;;;;;5084009;28;20087;-72
2021/03/29 11:56:30;;;;;;;5.47;2.45;;;18.70;1.00;;;;;;5085053;28;20526;-75
2021/03/29 11:58:56;;;;;;;7.55;1.80;;;18.90;1.00;;;;;;5079411;28;20147;-73
2021/03/29 12:01:34;;;;;;;7.28;1.77;;;18.40;1.00;;;;;;5079412;28;20139;-74
2021/03/29 12:04:04;;;;;;;5.05;1.60;;;18.60;1.00;;;;;;5082855;28;20140;-74
2021/03/29 12:06:36;;;;;;;7.90;1.77;;;18.90;1.00;;;;;;5084202;28;20131;-73
2021/03/29 12:09:11;;;;;;;4.72;1.40;;;18.80;1.00;;;;;;5085038;28;20044;-73
2021/03/29 12:14:34;;;;;;;3.08;1.83;;;18.90;1.00;;;;;;5040399;28;20733;-73
2021/03/29 12:17:03;;;;;;;4.32;1.70;;;19.20;1.00;;;;;;5079903;28;20044;-74
2021/03/29 12:19:31;;;;;;;3.47;1.92;;;19.20;1.00;;;;;;5081390;28;20040;-73
2021/03/29 12:22:00;;;;;;;5.28;1.85;;;19.20;1.00;;;;;;5079481;28;20050;-72
2021/03/29 12:24:30;;;;;;;5.88;2.15;;;19.50;1.00;;;;;;5083531;28;20508;-72
2021/03/29 12:27:01;;;;;;;4.22;1.63;;;19.30;1.00;;;;;;5084349;28;20490;-74
2021/03/29 12:29:37;;;;;;;6.85;2.05;;;19.40;1.00;;;;;;5082456;28;20840;-73
2021/03/29 12:32:07;;;;;;;3.25;1.40;;;19.40;1.00;;;;;;5080554;28;20101;-73
2021/03/29 12:34:36;;;;;;;6.85;1.70;;;19.20;1.00;;;;;;5080281;28;20088;-73
2021/03/29 12:37:04;;;;;;;5.80;1.55;;;19.40;1.00;;;;;;5080750;28;20048;-74
2021/03/29 12:39:35;;;;;;;6.18;1.65;;;19.60;1.00;;;;;;5085862;28;20052;-73
2021/03/29 12:42:06;;;;;;;3.60;1.50;;;19.70;1.00;;;;;;5077649;28;20593;-74
2021/03/29 12:44:34;;;;;;;8.05;2.40;;;19.80;1.00;;;;;;5084640;28;20052;-73
2021/03/29 12:47:05;;;;;;;4.88;1.77;;;19.40;1.00;;;;;;5086906;28;20052;-73
2021/03/29 12:49:32;;;;;;;6.22;1.98;;;19.70;1.00;;;;;;5090256;28;20050;-73
2021/03/29 12:52:02;;;;;;;6.50;1.77;;;19.50;1.00;;;;;;5083364;28;20063;-72
2021/03/29 12:54:33;;;;;;;7.45;1.73;;;19.70;1.00;;;;;;5080299;28;20135;-72
2021/03/29 12:57:04;;;;;;;5.40;2.08;;;19.70;1.00;;;;;;5087179;28;20074;-72
2021/03/29 12:59:32;;;;;;;4.47;1.48;;;19.20;1.00;;;;;;5088678;28;20820;-75
2021/03/29 13:01:59;;;;;;;6.95;1.70;;;19.40;1.00;;;;;;5082868;28;20052;-74
2021/03/29 13:04:30;;;;;;;6.00;1.92;;;19.60;1.00;;;;;;5084204;28;20044;-73
2021/03/29 13:07:08;;;;;;;3.92;1.88;;;19.70;1.00;;;;;;5085399;28;20051;-72
2021/03/29 13:09:41;;;;;;;5.82;1.40;;;19.80;1.00;;;;;;5087385;28;20044;-73
2021/03/29 13:12:10;;;;;;;6.55;1.70;;;19.80;1.00;;;;;;5082661;28;20841;-72
2021/03/29 13:14:59;;;;;;;6.88;2.15;;;19.70;1.00;;;;;;5086005;28;20048;-74
2021/03/29 13:17:26;;;;;;;5.63;2.20;;;19.70;1.00;;;;;;5088343;28;20062;-72